Time,TemperatureF,DewpointF,PressureIn,WindDirection,WindDirectionDegrees,WindSpeedMPH,WindSpeedGustMPH,Humidity,HourlyPrecipIn,Conditions,Clouds,dailyrainin,SolarRadiationWatts/m^2,SoftwareType,DateUTC
2013-03-05 00:02:00,31.0,23.0,-100.00,SW,215,1.0,4.0,72,0.00,,,0.00,0.000000,,2013-03-05 08:02:00,
2013-03-05 00:11:00,31.0,23.0,-100.00,SW,215,1.0,4.0,72,0.00,,,0.00,0.000000,,2013-03-05 08:11:00,
2013-03-05 00:21:00,31.0,23.0,-100.00,SW,215,1.0,4.0,72,0.00,,,0.00,0.000000,,2013-03-05 08:21:00,
2013-03-05 00:52:00,28.0,24.0,-100.00,NNE,23,2.0,4.0,85,0.00,,,0.00,0.000000,,2013-03-05 08:52:00,
2013-03-05 01:01:00,28.0,24.0,-100.00,NNE,23,2.0,4.0,85,0.00,,,0.00,0.000000,,2013-03-05 09:01:00,
2013-03-05 01:11:00,28.0,24.0,-100.00,NNE,23,2.0,4.0,85,0.00,,,0.00,0.000000,,2013-03-05 09:11:00,
2013-03-05 01:21:00,28.0,24.0,-100.00,NNE,23,2.0,4.0,85,0.00,,,0.00,0.000000,,2013-03-05 09:21:00,
2013-03-05 01:52:00,31.0,24.0,-100.00,SSW,202,3.0,7.0,76,0.00,,,-99.99,0.000000,,2013-03-05 09:52:00,
2013-03-05 02:01:00,31.0,24.0,-100.00,SSW,202,3.0,7.0,76,0.00,,,-99.99,0.000000,,2013-03-05 10:01:00,
2013-03-05 02:11:00,31.0,24.0,-100.00,SSW,202,3.0,7.0,76,0.00,,,-99.99,0.000000,,2013-03-05 10:11:00,
2013-03-05 02:21:00,31.0,24.0,-100.00,SSW,202,3.0,7.0,76,0.00,,,-99.99,0.000000,,2013-03-05 10:21:00,
2013-03-05 02:52:00,31.0,25.0,-100.00,West,273,1.0,6.0,77,0.00,,,0.00,0.000000,,2013-03-05 10:52:00,
2013-03-05 03:01:00,31.0,25.0,-100.00,West,273,1.0,6.0,77,0.00,,,0.00,0.000000,,2013-03-05 11:01:00,
2013-03-05 03:11:00,31.0,25.0,-100.00,West,273,1.0,6.0,77,0.00,,,0.00,0.000000,,2013-03-05 11:11:00,
2013-03-05 03:21:00,31.0,25.0,-100.00,West,273,1.0,6.0,77,0.00,,,0.00,0.000000,,2013-03-05 11:21:00,
2013-03-05 03:52:00,29.0,24.0,-100.00,WNW,299,6.0,7.0,82,0.00,,,0.00,0.000000,,2013-03-05 11:52:00,
2013-03-05 04:02:00,29.0,24.0,-100.00,WNW,299,6.0,7.0,82,0.00,,,0.00,0.000000,,2013-03-05 12:02:00,
2013-03-05 04:11:00,29.0,24.0,-100.00,WNW,299,6.0,7.0,82,0.00,,,0.00,0.000000,,2013-03-05 12:11:00,
2013-03-05 04:22:00,29.0,24.0,-100.00,WNW,299,6.0,7.0,82,0.00,,,0.00,0.000000,,2013-03-05 12:22:00,
2013-03-05 04:52:00,29.0,26.0,-100.00,NNW,328,4.0,7.0,87,0.00,,,0.00,0.000000,,2013-03-05 12:52:00,
2013-03-05 05:02:00,29.0,26.0,-100.00,NNW,328,4.0,7.0,87,0.00,,,0.00,0.000000,,2013-03-05 13:02:00,
2013-03-05 05:11:00,29.0,26.0,-100.00,NNW,328,4.0,7.0,87,0.00,,,0.00,0.000000,,2013-03-05 13:11:00,
2013-03-05 05:21:00,29.0,26.0,-100.00,NNW,328,4.0,7.0,87,0.00,,,0.00,0.000000,,2013-03-05 13:21:00,
2013-03-05 05:52:00,30.0,25.0,-100.00,West,260,1.0,5.0,82,0.00,,,0.00,0.000000,,2013-03-05 13:52:00,
2013-03-05 06:02:00,30.0,25.0,-100.00,West,260,1.0,5.0,82,0.00,,,0.00,0.000000,,2013-03-05 14:02:00,
2013-03-05 06:11:00,30.0,25.0,-100.00,West,260,1.0,5.0,82,0.00,,,0.00,0.000000,,2013-03-05 14:11:00,
2013-03-05 06:21:00,30.0,25.0,-100.00,West,260,1.0,5.0,82,0.00,,,0.00,0.000000,,2013-03-05 14:21:00,
2013-03-05 06:52:00,30.0,26.0,-100.00,WNW,287,5.0,8.0,84,0.00,,,0.00,0.000000,,2013-03-05 14:52:00,
2013-03-05 07:01:00,30.0,26.0,-100.00,WNW,287,5.0,8.0,84,0.00,,,0.00,0.000000,,2013-03-05 15:01:00,
2013-03-05 07:11:00,30.0,26.0,-100.00,WNW,287,5.0,8.0,84,0.00,,,0.00,0.000000,,2013-03-05 15:11:00,
2013-03-05 07:21:00,30.0,26.0,-100.00,WNW,287,5.0,8.0,84,0.00,,,0.00,0.000000,,2013-03-05 15:21:00,
2013-03-05 07:52:00,32.0,26.0,-100.00,NW,325,1.0,7.0,79,0.00,,,0.00,18.000000,,2013-03-05 15:52:00,
2013-03-05 08:01:00,32.0,26.0,-100.00,NW,325,1.0,7.0,79,0.00,,,0.00,18.000000,,2013-03-05 16:01:00,
2013-03-05 08:11:00,32.0,26.0,-100.00,NW,325,1.0,7.0,79,0.00,,,0.00,18.000000,,2013-03-05 16:11:00,
2013-03-05 08:21:00,32.0,26.0,-100.00,NW,325,1.0,7.0,79,0.00,,,0.00,18.000000,,2013-03-05 16:21:00,
2013-03-05 08:52:00,35.0,29.0,-100.00,NW,314,4.0,9.0,79,0.00,,,0.00,47.000000,,2013-03-05 16:52:00,
2013-03-05 09:01:00,35.0,29.0,-100.00,NW,314,4.0,9.0,79,0.00,,,0.00,47.000000,,2013-03-05 17:01:00,
2013-03-05 09:11:00,35.0,29.0,-100.00,NW,314,4.0,9.0,79,0.00,,,0.00,47.000000,,2013-03-05 17:11:00,
2013-03-05 09:21:00,35.0,29.0,-100.00,NW,314,4.0,9.0,79,0.00,,,0.00,47.000000,,2013-03-05 17:21:00,
2013-03-05 09:52:00,37.0,27.0,-100.00,WNW,301,6.0,9.0,67,0.00,,,0.00,107.000000,,2013-03-05 17:52:00,
2013-03-05 10:01:00,37.0,27.0,-100.00,WNW,301,6.0,9.0,67,0.00,,,0.00,107.000000,,2013-03-05 18:01:00,
2013-03-05 10:11:00,37.0,27.0,-100.00,WNW,301,6.0,9.0,67,0.00,,,0.00,107.000000,,2013-03-05 18:11:00,
2013-03-05 10:21:00,37.0,27.0,-100.00,WNW,301,6.0,9.0,67,0.00,,,0.00,107.000000,,2013-03-05 18:21:00,
2013-03-05 10:53:00,41.0,26.0,-100.00,NNW,347,7.0,9.0,55,0.00,,,0.00,205.000000,,2013-03-05 18:53:00,
2013-03-05 11:01:00,41.0,26.0,-100.00,NNW,347,7.0,9.0,55,0.00,,,0.00,205.000000,,2013-03-05 19:01:00,
2013-03-05 11:11:00,41.0,26.0,-100.00,NNW,347,7.0,9.0,55,0.00,,,0.00,205.000000,,2013-03-05 19:11:00,
2013-03-05 11:21:00,41.0,26.0,-100.00,NNW,347,7.0,9.0,55,0.00,,,0.00,205.000000,,2013-03-05 19:21:00,
2013-03-05 11:52:00,42.0,26.0,-100.00,NNW,339,5.0,11.0,53,0.00,,,0.00,140.000000,,2013-03-05 19:52:00,
2013-03-05 12:01:00,42.0,26.0,-100.00,NNW,339,5.0,11.0,53,0.00,,,0.00,140.000000,,2013-03-05 20:01:00,
2013-03-05 12:11:00,42.0,26.0,-100.00,NNW,339,5.0,11.0,53,0.00,,,0.00,140.000000,,2013-03-05 20:11:00,
2013-03-05 12:21:00,42.0,26.0,-100.00,NNW,339,5.0,11.0,53,0.00,,,0.00,140.000000,,2013-03-05 20:21:00,
2013-03-05 12:52:00,43.0,27.0,-100.00,NNW,341,5.0,10.0,52,0.00,,,0.00,130.000000,,2013-03-05 20:52:00,
2013-03-05 13:01:00,43.0,27.0,-100.00,NNW,341,5.0,10.0,52,0.00,,,0.00,130.000000,,2013-03-05 21:01:00,
2013-03-05 13:11:00,43.0,27.0,-100.00,NNW,341,5.0,10.0,52,0.00,,,0.00,130.000000,,2013-03-05 21:11:00,
2013-03-05 13:21:00,43.0,27.0,-100.00,NNW,341,5.0,10.0,52,0.00,,,0.00,130.000000,,2013-03-05 21:21:00,
2013-03-05 13:52:00,44.0,29.0,-100.00,North,356,8.0,13.0,55,0.00,,,0.00,131.000000,,2013-03-05 21:52:00,
2013-03-05 14:01:00,44.0,29.0,-100.00,North,356,8.0,13.0,55,0.00,,,0.00,131.000000,,2013-03-05 22:01:00,
2013-03-05 14:11:00,44.0,29.0,-100.00,North,356,8.0,13.0,55,0.00,,,0.00,131.000000,,2013-03-05 22:11:00,
2013-03-05 14:21:00,44.0,29.0,-100.00,North,356,8.0,13.0,55,0.00,,,0.00,131.000000,,2013-03-05 22:21:00,
2013-03-05 14:52:00,41.0,34.0,-100.00,North,349,6.0,12.0,77,0.00,,,0.00,116.000000,,2013-03-05 22:52:00,
2013-03-05 15:01:00,41.0,34.0,-100.00,North,349,6.0,12.0,77,0.00,,,0.00,116.000000,,2013-03-05 23:01:00,
2013-03-05 15:11:00,41.0,34.0,-100.00,North,349,6.0,12.0,77,0.00,,,0.00,116.000000,,2013-03-05 23:11:00,
2013-03-05 15:21:00,41.0,34.0,-100.00,North,349,6.0,12.0,77,0.00,,,0.00,116.000000,,2013-03-05 23:21:00,
2013-03-05 15:52:00,42.0,35.0,-100.00,NNW,348,10.0,15.0,77,0.00,,,0.00,189.000000,,2013-03-05 23:52:00,
2013-03-05 16:01:00,42.0,35.0,-100.00,NNW,348,10.0,15.0,77,0.00,,,0.00,189.000000,,2013-03-06 00:01:00,
2013-03-05 16:11:00,42.0,35.0,-100.00,NNW,348,10.0,15.0,77,0.00,,,0.00,189.000000,,2013-03-06 00:11:00,
2013-03-05 16:21:00,42.0,35.0,-100.00,NNW,348,10.0,15.0,77,0.00,,,0.00,189.000000,,2013-03-06 00:21:00,
2013-03-05 16:52:00,41.0,34.0,-100.00,NNW,343,9.0,14.0,76,0.00,,,0.00,72.000000,,2013-03-06 00:52:00,
2013-03-05 17:01:00,41.0,34.0,-100.00,NNW,343,9.0,14.0,76,0.00,,,0.00,72.000000,,2013-03-06 01:01:00,
2013-03-05 17:11:00,41.0,34.0,-100.00,NNW,343,9.0,14.0,76,0.00,,,0.00,72.000000,,2013-03-06 01:11:00,
2013-03-05 17:21:00,41.0,34.0,-100.00,NNW,343,9.0,14.0,76,0.00,,,0.00,72.000000,,2013-03-06 01:21:00,
2013-03-05 17:52:00,41.0,35.0,-100.00,NNW,338,8.0,13.0,78,0.00,,,0.00,45.000000,,2013-03-06 01:52:00,
2013-03-05 18:01:00,41.0,35.0,-100.00,NNW,338,8.0,13.0,78,0.00,,,0.00,45.000000,,2013-03-06 02:01:00,
2013-03-05 18:11:00,41.0,35.0,-100.00,NNW,338,8.0,13.0,78,0.00,,,0.00,45.000000,,2013-03-06 02:11:00,
2013-03-05 18:21:00,41.0,35.0,-100.00,NNW,338,8.0,13.0,78,0.00,,,0.00,45.000000,,2013-03-06 02:21:00,
2013-03-05 19:01:00,40.0,34.0,-100.00,NNW,338,9.0,13.0,80,0.00,,,0.00,2.000000,,2013-03-06 03:01:00,
2013-03-05 19:11:00,40.0,34.0,-100.00,NNW,338,9.0,13.0,80,0.00,,,0.00,2.000000,,2013-03-06 03:11:00,
2013-03-05 19:21:00,40.0,34.0,-100.00,NNW,338,9.0,13.0,80,0.00,,,0.00,2.000000,,2013-03-06 03:21:00,
2013-03-05 19:52:00,40.0,34.0,-100.00,NNW,333,6.0,12.0,79,0.00,,,0.00,0.000000,,2013-03-06 03:52:00,
2013-03-05 20:01:00,40.0,34.0,-100.00,NNW,333,6.0,12.0,79,0.00,,,0.00,0.000000,,2013-03-06 04:01:00,
2013-03-05 20:11:00,40.0,34.0,-100.00,NNW,333,6.0,12.0,79,0.00,,,0.00,0.000000,,2013-03-06 04:11:00,
2013-03-05 20:21:00,40.0,34.0,-100.00,NNW,333,6.0,12.0,79,0.00,,,0.00,0.000000,,2013-03-06 04:21:00,
2013-03-05 20:52:00,38.0,35.0,-100.00,WNW,300,7.0,9.0,90,0.01,,,0.01,0.000000,,2013-03-06 04:52:00,
2013-03-05 21:01:00,38.0,35.0,-100.00,WNW,300,7.0,9.0,90,0.01,,,0.01,0.000000,,2013-03-06 05:01:00,
2013-03-05 21:11:00,38.0,35.0,-100.00,WNW,300,7.0,9.0,90,0.01,,,0.01,0.000000,,2013-03-06 05:11:00,
2013-03-05 21:22:00,38.0,35.0,-100.00,WNW,300,7.0,9.0,90,0.01,,,0.01,0.000000,,2013-03-06 05:22:00,
2013-03-05 21:52:00,38.0,35.0,-100.00,West,265,2.0,9.0,89,0.02,,,-99.99,0.000000,,2013-03-06 05:52:00,
2013-03-05 22:01:00,38.0,35.0,-100.00,West,265,2.0,9.0,89,0.02,,,-99.99,0.000000,,2013-03-06 06:01:00,
2013-03-05 22:11:00,38.0,35.0,-100.00,West,265,2.0,9.0,89,0.02,,,-99.99,0.000000,,2013-03-06 06:11:00,
2013-03-05 22:22:00,38.0,35.0,-100.00,West,265,2.0,9.0,89,0.02,,,-99.99,0.000000,,2013-03-06 06:22:00,
2013-03-05 22:52:00,37.0,35.0,-100.00,WNW,300,5.0,7.0,94,0.01,,,0.04,0.000000,,2013-03-06 06:52:00,
2013-03-05 23:01:00,37.0,35.0,-100.00,WNW,300,5.0,7.0,94,0.01,,,0.04,0.000000,,2013-03-06 07:01:00,
2013-03-05 23:11:00,37.0,35.0,-100.00,WNW,300,5.0,7.0,94,0.01,,,0.04,0.000000,,2013-03-06 07:11:00,
2013-03-05 23:22:00,37.0,35.0,-100.00,WNW,300,5.0,7.0,94,0.01,,,0.04,0.000000,,2013-03-06 07:22:00,
2013-03-05 23:52:00,37.0,34.0,-100.00,WNW,303,7.0,9.0,90,0.00,,,0.04,0.000000,,2013-03-06 07:52:00,